createdAt,value
2018-05-23T00:02:04.730Z,92.80
2018-05-23T00:04:33.031Z,93.00
2018-05-23T00:07:01.316Z,93.00
2018-05-23T00:09:29.504Z,92.80
2018-05-23T00:11:58.422Z,93.10
2018-05-23T00:14:26.668Z,92.80
2018-05-23T00:16:55.699Z,93.00
2018-05-23T00:19:23.883Z,92.90
2018-05-23T00:21:52.032Z,92.80
2018-05-23T00:24:20.226Z,92.90
2018-05-23T00:26:49.213Z,93.00
2018-05-23T00:29:17.385Z,93.00
2018-05-23T00:31:45.546Z,93.10
2018-05-23T00:34:13.763Z,93.20
2018-05-23T00:36:41.915Z,93.10
2018-05-23T00:39:10.092Z,93.10
2018-05-23T00:41:38.282Z,93.40
2018-05-23T00:44:06.451Z,93.60
2018-05-23T00:46:35.419Z,93.50
2018-05-23T00:49:03.599Z,93.50
2018-05-23T00:51:31.827Z,93.30
2018-05-23T00:54:00.004Z,93.60
2018-05-23T00:56:29.044Z,94.20
2018-05-23T00:58:57.259Z,94.20
2018-05-23T01:01:25.525Z,94.10
2018-05-23T01:03:53.704Z,94.10
2018-05-23T01:06:21.851Z,93.90
2018-05-23T01:08:50.154Z,93.90
2018-05-23T01:11:18.319Z,94.00
2018-05-23T01:13:46.498Z,94.00
2018-05-23T01:16:14.647Z,93.90
2018-05-23T01:18:42.860Z,93.70
2018-05-23T01:21:11.011Z,93.50
2018-05-23T01:23:39.163Z,94.20
2018-05-23T01:26:07.475Z,94.60
2018-05-23T01:28:35.624Z,94.60
2018-05-23T01:31:03.815Z,94.50
2018-05-23T01:33:31.973Z,94.70
2018-05-23T01:36:00.146Z,94.70
2018-05-23T01:38:28.303Z,95.00
2018-05-23T01:40:56.479Z,95.10
2018-05-23T01:43:24.636Z,94.70
2018-05-23T01:45:53.591Z,95.00
2018-05-23T01:48:21.740Z,95.00
2018-05-23T01:50:49.916Z,94.90
2018-05-23T01:53:18.075Z,95.00
2018-05-23T01:55:47.204Z,95.50
2018-05-23T01:58:15.360Z,95.50
2018-05-23T02:00:43.530Z,95.70
2018-05-23T02:03:11.727Z,95.70
2018-05-23T02:05:40.824Z,95.70
2018-05-23T02:08:09.000Z,95.70
2018-05-23T02:10:37.202Z,95.90
2018-05-23T02:13:05.360Z,95.90
2018-05-23T02:15:33.573Z,96.30
2018-05-23T02:18:01.792Z,96.00
2018-05-23T02:20:29.964Z,96.20
2018-05-23T02:22:58.116Z,96.00
2018-05-23T02:25:26.515Z,96.40
2018-05-23T02:27:54.693Z,96.60
2018-05-23T02:30:22.864Z,97.10
2018-05-23T02:32:51.024Z,97.00
2018-05-23T02:35:20.239Z,96.90
2018-05-23T02:37:48.406Z,96.90
2018-05-23T02:40:16.588Z,96.80
2018-05-23T02:42:44.759Z,96.70
2018-05-23T02:45:12.913Z,96.60
2018-05-23T02:47:41.075Z,96.60
2018-05-23T02:50:09.300Z,96.30
2018-05-23T02:52:37.576Z,96.30
2018-05-23T02:55:06.679Z,97.10
2018-05-23T02:57:34.872Z,96.80
2018-05-23T03:00:03.785Z,97.50
2018-05-23T03:02:31.950Z,97.40
2018-05-23T03:05:01.002Z,97.00
2018-05-23T03:07:29.651Z,97.00
2018-05-23T03:09:57.874Z,96.90
2018-05-23T03:12:26.063Z,96.80
2018-05-23T03:14:54.223Z,97.00
2018-05-23T03:17:23.899Z,96.70
2018-05-23T03:19:52.052Z,96.70
2018-05-23T03:22:20.262Z,96.40
2018-05-23T03:24:49.330Z,96.70
2018-05-23T03:27:17.530Z,96.70
2018-05-23T03:29:45.707Z,97.50
2018-05-23T03:32:13.881Z,97.40
2018-05-23T03:34:42.871Z,97.10
2018-05-23T03:37:11.566Z,97.10
2018-05-23T03:39:39.952Z,97.00
2018-05-23T03:42:08.215Z,97.10
2018-05-23T03:44:37.413Z,97.10
2018-05-23T03:47:05.841Z,97.10
2018-05-23T03:49:35.604Z,97.00
2018-05-23T03:52:03.775Z,97.00
2018-05-23T03:54:31.951Z,97.00
2018-05-23T03:57:00.118Z,96.70
2018-05-23T03:59:40.123Z,97.00
2018-05-23T04:02:20.938Z,97.50
2018-05-23T04:07:51.984Z,98.00
2018-05-23T04:10:20.260Z,98.00
2018-05-23T04:12:48.655Z,97.70
2018-05-23T04:15:16.811Z,97.80
2018-05-23T04:17:44.986Z,97.60
2018-05-23T04:20:13.163Z,97.40
2018-05-23T04:22:41.335Z,97.50
2018-05-23T04:25:10.419Z,97.70
2018-05-23T04:27:38.591Z,97.70
2018-05-23T04:30:06.762Z,97.60
2018-05-23T04:32:34.937Z,97.60
2018-05-23T04:35:03.259Z,97.60
2018-05-23T04:37:31.529Z,97.90
2018-05-23T04:39:59.707Z,98.00
2018-05-23T04:42:27.981Z,97.90
2018-05-23T04:44:56.159Z,97.60
2018-05-23T04:47:24.347Z,97.60
2018-05-23T04:49:52.605Z,97.50
2018-05-23T04:52:20.750Z,97.30
2018-05-23T04:54:48.938Z,97.40
2018-05-23T04:57:17.083Z,97.50
2018-05-23T04:59:45.264Z,97.50
2018-05-23T05:02:13.423Z,97.50
2018-05-23T05:04:42.677Z,97.90
2018-05-23T05:07:10.826Z,97.90
2018-05-23T05:09:39.028Z,97.90
2018-05-23T05:12:07.175Z,97.70
2018-05-23T05:14:35.347Z,97.60
2018-05-23T05:17:03.541Z,97.50
2018-05-23T05:19:31.715Z,97.40
2018-05-23T05:21:59.863Z,97.00
2018-05-23T05:24:28.115Z,96.80
2018-05-23T05:26:56.287Z,96.60
2018-05-23T05:29:25.926Z,96.90
2018-05-23T05:31:54.105Z,96.90
2018-05-23T05:34:23.427Z,97.50
2018-05-23T05:36:51.579Z,97.30
2018-05-23T05:39:19.752Z,97.60
2018-05-23T05:41:47.920Z,97.40
2018-05-23T05:44:16.183Z,97.30
2018-05-23T05:46:44.403Z,97.40
2018-05-23T05:49:12.573Z,96.50
2018-05-23T05:51:40.719Z,96.40
2018-05-23T05:54:08.907Z,96.10
2018-05-23T05:56:37.067Z,96.20
2018-05-23T05:59:05.246Z,96.10
2018-05-23T06:01:33.436Z,95.70
2018-05-23T06:04:02.423Z,95.10
2018-05-23T06:06:30.583Z,95.10
2018-05-23T06:08:58.740Z,95.30
2018-05-23T06:11:26.940Z,95.50
2018-05-23T06:13:55.923Z,95.20
2018-05-23T06:16:24.120Z,95.20
2018-05-23T06:18:52.280Z,95.00
2018-05-23T06:21:20.480Z,95.50
2018-05-23T06:23:48.644Z,96.40
2018-05-23T06:26:16.918Z,96.60
2018-05-23T06:28:45.080Z,96.60
2018-05-23T06:31:13.268Z,96.80
2018-05-23T06:33:41.445Z,96.50
2018-05-23T06:36:09.618Z,96.00
2018-05-23T06:38:37.783Z,96.10
2018-05-23T06:41:05.964Z,95.80
2018-05-23T06:43:34.193Z,95.60
2018-05-23T06:46:02.416Z,95.60
2018-05-23T06:48:30.567Z,95.30
2018-05-23T06:50:58.751Z,95.00
2018-05-23T06:53:26.947Z,94.80
2018-05-23T06:55:55.125Z,94.50
2018-05-23T06:58:23.276Z,94.90
2018-05-23T07:00:51.458Z,95.20
2018-05-23T07:03:19.688Z,94.70
2018-05-23T07:05:48.784Z,93.60
2018-05-23T07:08:16.889Z,93.60
2018-05-23T07:10:45.195Z,93.30
2018-05-23T07:13:14.353Z,93.60
2018-05-23T07:15:42.555Z,93.60
2018-05-23T07:18:10.795Z,93.30
2018-05-23T07:20:38.890Z,93.40
2018-05-23T07:23:07.063Z,93.80
2018-05-23T07:25:35.222Z,93.20
2018-05-23T07:28:03.536Z,93.10
2018-05-23T07:30:31.667Z,93.00
2018-05-23T07:32:59.856Z,93.30
2018-05-23T07:35:28.013Z,93.40
2018-05-23T07:37:56.180Z,93.70
2018-05-23T07:40:25.122Z,93.10
2018-05-23T07:42:54.706Z,93.40
2018-05-23T07:45:22.864Z,93.40
2018-05-23T07:47:51.759Z,93.90
2018-05-23T07:50:19.930Z,93.30
2018-05-23T07:52:51.488Z,93.40
2018-05-23T07:55:21.541Z,93.30
2018-05-23T07:57:49.716Z,93.00
2018-05-23T08:00:18.641Z,92.60
2018-05-23T08:02:46.880Z,92.50
2018-05-23T08:05:15.060Z,92.70
2018-05-23T08:07:43.333Z,92.90
2018-05-23T08:10:11.499Z,92.10
2018-05-23T08:12:40.707Z,92.00
2018-05-23T08:15:08.976Z,92.10
2018-05-23T08:17:37.361Z,92.40
2018-05-23T08:20:05.513Z,91.60
2018-05-23T08:22:34.513Z,91.60
2018-05-23T08:25:02.717Z,91.60
2018-05-23T08:27:30.893Z,91.70
2018-05-23T08:29:59.039Z,91.40
2018-05-23T08:32:27.236Z,90.80
2018-05-23T08:34:55.388Z,91.20
2018-05-23T08:37:23.599Z,90.80
2018-05-23T08:39:52.568Z,90.60
2018-05-23T08:42:21.559Z,90.60
2018-05-23T08:44:49.739Z,90.40
2018-05-23T08:47:18.711Z,89.80
2018-05-23T08:49:48.430Z,88.80
2018-05-23T08:52:17.410Z,86.90
2018-05-23T08:54:45.615Z,86.90
2018-05-23T08:57:13.855Z,85.40
2018-05-23T08:59:42.107Z,83.80
2018-05-23T09:02:10.310Z,81.30
2018-05-23T09:04:38.525Z,80.40
2018-05-23T09:07:07.466Z,80.60
2018-05-23T09:09:35.740Z,80.60
2018-05-23T09:12:04.000Z,79.40
2018-05-23T09:14:32.228Z,77.50
2018-05-23T09:17:01.179Z,76.70
2018-05-23T09:19:29.398Z,76.60
2018-05-23T09:21:57.663Z,76.70
2018-05-23T09:24:26.651Z,75.80
2018-05-23T09:26:55.664Z,73.80
2018-05-23T09:29:24.631Z,74.40
2018-05-23T09:31:54.321Z,70.80
2018-05-23T09:34:22.525Z,70.70
2018-05-23T09:36:51.487Z,72.10
2018-05-23T09:39:19.816Z,71.80
2018-05-23T09:41:48.800Z,71.60
2018-05-23T09:44:17.781Z,72.10
2018-05-23T09:46:47.481Z,71.90
2018-05-23T09:49:15.766Z,71.90
2018-05-23T09:51:44.051Z,72.00
2018-05-23T09:54:13.023Z,70.80
2018-05-23T09:56:41.217Z,70.70
2018-05-23T09:59:09.415Z,72.10
2018-05-23T10:01:37.697Z,69.50
2018-05-23T10:04:06.769Z,69.80
2018-05-23T10:06:35.785Z,71.80
2018-05-23T10:09:05.687Z,71.00
2018-05-23T10:11:34.667Z,71.60
2018-05-23T10:14:03.643Z,70.80
2018-05-23T10:16:31.939Z,70.60
2018-05-23T10:19:00.943Z,72.10
2018-05-23T10:21:29.898Z,71.40
2018-05-23T10:23:58.123Z,71.40
2018-05-23T10:26:26.324Z,71.30
2018-05-23T10:28:54.543Z,68.40
2018-05-23T10:31:22.732Z,68.20
2018-05-23T10:33:51.719Z,66.20
2018-05-23T10:36:19.921Z,66.10
2018-05-23T10:38:48.115Z,68.50
2018-05-23T10:41:16.334Z,69.70
2018-05-23T10:43:44.625Z,68.50
2018-05-23T10:46:12.845Z,69.10
2018-05-23T10:48:41.007Z,66.40
2018-05-23T10:51:09.251Z,67.20
2018-05-23T10:53:38.278Z,65.30
2018-05-23T10:56:06.399Z,65.30
2018-05-23T10:58:34.593Z,64.20
2018-05-23T11:01:02.860Z,64.50
2018-05-23T11:03:31.856Z,63.40
2018-05-23T11:06:00.084Z,63.50
2018-05-23T11:08:28.318Z,64.60
2018-05-23T11:10:56.584Z,64.30
2018-05-23T11:13:24.850Z,63.60
2018-05-23T11:15:53.047Z,61.80
2018-05-23T11:18:21.232Z,62.10
2018-05-23T11:20:50.194Z,63.90
2018-05-23T11:23:18.476Z,64.00
2018-05-23T11:25:46.680Z,67.00
2018-05-23T11:28:14.864Z,63.30
2018-05-23T11:30:43.169Z,62.70
2018-05-23T11:33:11.383Z,62.10
2018-05-23T11:35:39.605Z,61.40
2018-05-23T11:38:07.812Z,62.40
2018-05-23T11:40:36.124Z,61.80
2018-05-23T11:43:05.100Z,60.00
2018-05-23T11:45:33.282Z,59.40
2018-05-23T11:48:02.252Z,60.30
2018-05-23T11:50:30.647Z,60.00
2018-05-23T11:52:58.830Z,59.50
2018-05-23T11:55:27.788Z,56.70
2018-05-23T11:57:55.998Z,56.70
2018-05-23T12:00:24.306Z,57.00
2018-05-23T12:02:52.515Z,58.10
2018-05-23T12:05:20.696Z,58.50
2018-05-23T12:07:48.993Z,59.50
2018-05-23T12:10:17.254Z,57.40
2018-05-23T12:12:45.448Z,58.10
2018-05-23T12:15:13.711Z,58.40
2018-05-23T12:17:41.911Z,58.80
2018-05-23T12:20:10.851Z,58.60
2018-05-23T12:22:39.055Z,58.60
2018-05-23T12:25:08.007Z,59.80
2018-05-23T12:27:36.216Z,59.80
2018-05-23T12:30:04.390Z,57.90
2018-05-23T12:32:32.596Z,57.20
2018-05-23T12:35:01.594Z,58.50
2018-05-23T12:37:30.538Z,57.70
2018-05-23T12:39:58.781Z,57.70
2018-05-23T12:42:26.987Z,59.90
2018-05-23T12:44:55.179Z,57.50
2018-05-23T12:47:23.463Z,58.20
2018-05-23T12:49:51.705Z,59.50
2018-05-23T12:52:20.037Z,58.40
2018-05-23T12:54:49.017Z,56.50
2018-05-23T12:57:17.287Z,56.40
2018-05-23T12:59:45.467Z,59.50
2018-05-23T13:02:14.440Z,57.30
2018-05-23T13:04:42.728Z,56.70
2018-05-23T13:07:10.940Z,57.10
2018-05-23T13:09:39.233Z,58.40
2018-05-23T13:12:07.450Z,56.70
2018-05-23T13:14:35.656Z,57.70
2018-05-23T13:17:03.861Z,56.80
2018-05-23T13:19:32.160Z,56.20
2018-05-23T13:22:00.360Z,55.40
2018-05-23T13:24:28.578Z,55.80
2018-05-23T13:26:56.758Z,56.60
2018-05-23T13:29:24.958Z,56.10
2018-05-23T13:31:53.260Z,54.30
2018-05-23T13:34:21.536Z,54.20
2018-05-23T13:36:49.819Z,55.20
2018-05-23T13:39:18.154Z,54.00
2018-05-23T13:41:46.350Z,54.20
2018-05-23T13:44:14.555Z,54.60
2018-05-23T13:46:43.507Z,54.70
2018-05-23T13:49:11.776Z,54.60
2018-05-23T13:51:40.008Z,53.90
2018-05-23T13:54:09.083Z,54.40
2018-05-23T13:56:37.260Z,54.40
2018-05-23T13:59:05.473Z,53.70
2018-05-23T14:01:33.658Z,54.20
2018-05-23T14:04:01.869Z,54.10
2018-05-23T14:06:30.155Z,55.50
2018-05-23T14:08:58.364Z,56.70
2018-05-23T14:11:26.587Z,56.60
2018-05-23T14:13:54.798Z,55.80
2018-05-23T14:16:22.979Z,55.80
2018-05-23T14:18:51.192Z,56.70
2018-05-23T14:21:19.398Z,55.80
2018-05-23T14:23:47.607Z,54.50
2018-05-23T14:26:15.851Z,53.90
2018-05-23T14:28:44.835Z,55.10
2018-05-23T14:31:13.015Z,55.00
2018-05-23T14:33:41.300Z,55.10
2018-05-23T14:36:09.479Z,57.30
2018-05-23T14:38:38.463Z,54.60
2018-05-23T14:41:06.643Z,54.60
2018-05-23T14:43:35.698Z,55.40
2018-05-23T14:46:03.791Z,55.40
2018-05-23T14:48:32.048Z,56.90
2018-05-23T14:51:00.440Z,57.90
2018-05-23T14:53:28.635Z,55.60
2018-05-23T14:55:56.847Z,55.80
2018-05-23T14:58:25.223Z,54.90
2018-05-23T15:00:54.176Z,54.90
2018-05-23T15:03:22.459Z,54.90
2018-05-23T15:05:50.735Z,54.20
2018-05-23T15:08:19.014Z,54.70
2018-05-23T15:10:47.291Z,54.40
2018-05-23T15:13:16.256Z,55.40
2018-05-23T15:15:44.536Z,54.90
2018-05-23T15:18:12.814Z,55.10
2018-05-23T15:20:41.111Z,55.10
2018-05-23T15:23:09.300Z,55.30
2018-05-23T15:25:38.391Z,54.70
2018-05-23T15:28:06.707Z,54.60
2018-05-23T15:30:34.923Z,55.90
2018-05-23T15:33:03.112Z,55.80
2018-05-23T15:35:32.089Z,56.00
2018-05-23T15:38:00.267Z,55.90
2018-05-23T15:40:28.475Z,55.40
2018-05-23T15:42:56.727Z,55.10
2018-05-23T15:45:24.947Z,53.70
2018-05-23T15:47:55.639Z,55.80
2018-05-23T15:50:23.864Z,55.80
2018-05-23T15:52:52.043Z,54.40
2018-05-23T15:55:20.243Z,54.20
2018-05-23T15:57:48.704Z,55.90
2018-05-23T16:00:16.903Z,55.40
2018-05-23T16:02:45.186Z,55.40
2018-05-23T16:05:13.392Z,54.90
2018-05-23T16:07:42.588Z,55.50
2018-05-23T16:10:11.546Z,55.70
2018-05-23T16:12:39.827Z,55.70
2018-05-23T16:15:08.116Z,55.40
2018-05-23T16:17:36.319Z,55.80
2018-05-23T16:20:04.566Z,55.90
2018-05-23T16:22:33.564Z,55.90
2018-05-23T16:25:01.744Z,56.00
2018-05-23T16:27:29.992Z,56.00
2018-05-23T16:29:58.167Z,56.90
2018-05-23T16:32:26.462Z,57.80
2018-05-23T16:34:54.734Z,58.10
2018-05-23T16:37:22.978Z,57.40
2018-05-23T16:39:51.183Z,59.10
2018-05-23T16:42:20.155Z,59.10
2018-05-23T16:44:48.852Z,59.10
2018-05-23T16:47:17.879Z,56.80
2018-05-23T16:49:46.818Z,57.40
2018-05-23T16:52:15.015Z,57.30
2018-05-23T16:54:43.223Z,58.40
2018-05-23T16:57:11.672Z,58.50
2018-05-23T16:59:39.855Z,58.50
2018-05-23T17:02:08.044Z,57.90
2018-05-23T17:04:36.993Z,57.20
2018-05-23T17:07:05.402Z,57.20
2018-05-23T17:09:33.678Z,56.60
2018-05-23T17:12:01.871Z,57.20
2018-05-23T17:14:30.822Z,57.40
2018-05-23T17:16:59.111Z,57.40
2018-05-23T17:19:27.296Z,58.60
2018-05-23T17:21:55.584Z,57.50
2018-05-23T17:24:23.846Z,58.60
2018-05-23T17:26:52.193Z,58.60
2018-05-23T17:29:20.372Z,57.30
2018-05-23T17:31:48.570Z,57.00
2018-05-23T17:34:16.864Z,58.20
2018-05-23T17:36:46.071Z,57.50
2018-05-23T17:39:15.042Z,57.00
2018-05-23T17:41:43.315Z,57.00
2018-05-23T17:44:11.488Z,57.30
2018-05-23T17:46:39.683Z,58.40
2018-05-23T17:49:08.149Z,59.10
2018-05-23T17:51:36.937Z,59.80
2018-05-23T17:54:05.290Z,59.90
2018-05-23T17:56:33.468Z,57.50
2018-05-23T17:59:01.765Z,58.90
2018-05-23T18:01:30.933Z,59.10
2018-05-23T18:03:59.863Z,59.90
2018-05-23T18:06:28.130Z,59.90
2018-05-23T18:08:57.136Z,64.10
2018-05-23T18:11:26.207Z,63.10
2018-05-23T18:13:54.386Z,63.00
2018-05-23T18:16:22.591Z,62.40
2018-05-23T18:18:50.814Z,64.30
2018-05-23T18:21:19.035Z,66.40
2018-05-23T18:23:48.994Z,68.50
2018-05-23T18:26:18.541Z,68.30
2018-05-23T18:28:47.838Z,68.00
2018-05-23T18:31:16.728Z,68.00
2018-05-23T18:33:45.309Z,69.30
2018-05-23T18:36:13.872Z,72.90
2018-05-23T18:38:42.113Z,73.30
2018-05-23T18:41:10.606Z,73.90
2018-05-23T18:43:38.820Z,74.50
2018-05-23T18:46:07.056Z,75.10
2018-05-23T18:48:35.369Z,74.80
2018-05-23T18:51:03.886Z,75.80
2018-05-23T18:53:33.251Z,81.90
2018-05-23T18:56:01.472Z,81.80
2018-05-23T18:58:29.704Z,83.90
2018-05-23T19:00:58.960Z,84.50
2018-05-23T19:03:27.268Z,84.50
2018-05-23T19:05:56.278Z,83.40
2018-05-23T19:08:24.845Z,83.10
2018-05-23T19:10:54.246Z,82.60
2018-05-23T19:13:23.613Z,82.60
2018-05-23T19:15:52.126Z,82.60
2018-05-23T19:18:20.412Z,82.00
2018-05-23T19:20:48.723Z,83.20
2018-05-23T19:23:17.069Z,85.10
2018-05-23T19:25:46.389Z,85.70
2018-05-23T19:28:15.656Z,83.80
2018-05-23T19:30:44.578Z,84.30
2018-05-23T19:33:12.791Z,83.60
2018-05-23T19:35:41.999Z,85.50
2018-05-23T19:38:11.003Z,87.90
2018-05-23T19:40:39.287Z,87.90
2018-05-23T19:43:08.247Z,91.00
2018-05-23T19:45:36.656Z,91.00
2018-05-23T19:48:06.260Z,91.50
2018-05-23T19:50:34.946Z,91.50
2018-05-23T19:53:04.332Z,93.10
2018-05-23T19:55:32.888Z,92.70
2018-05-23T19:58:01.175Z,93.40
2018-05-23T20:00:29.518Z,94.60
2018-05-23T20:02:57.701Z,95.20
2018-05-23T20:05:27.370Z,96.40
2018-05-23T20:07:55.689Z,96.40
2018-05-23T20:10:23.827Z,96.00
2018-05-23T20:12:52.024Z,95.70
2018-05-23T20:15:21.545Z,95.80
2018-05-23T20:17:50.060Z,95.90
2018-05-23T20:20:20.005Z,97.10
2018-05-23T20:22:48.474Z,97.10
2018-05-23T20:25:16.926Z,95.70
2018-05-23T20:27:45.204Z,95.20
2018-05-23T20:30:13.471Z,95.00
2018-05-23T20:32:41.715Z,94.90
2018-05-23T20:35:10.048Z,95.50
2018-05-23T20:37:39.027Z,96.10
2018-05-23T20:40:07.231Z,96.10
2018-05-23T20:42:35.478Z,95.10
2018-05-23T20:45:04.468Z,93.70
2018-05-23T20:47:33.441Z,93.40
2018-05-23T20:50:01.743Z,93.40
2018-05-23T20:52:30.723Z,93.40
2018-05-23T20:54:59.075Z,93.40
2018-05-23T20:57:27.264Z,93.80
2018-05-23T20:59:57.003Z,93.80
2018-05-23T21:02:25.951Z,94.30
2018-05-23T21:04:54.148Z,94.30
2018-05-23T21:07:22.344Z,95.30
2018-05-23T21:09:51.305Z,96.30
2018-05-23T21:12:19.532Z,96.30
2018-05-23T21:14:47.799Z,97.10
2018-05-23T21:17:16.772Z,97.10
2018-05-23T21:19:45.767Z,97.10
2018-05-23T21:22:14.764Z,96.70
2018-05-23T21:24:43.196Z,96.70
2018-05-23T21:27:11.623Z,96.80
2018-05-23T21:29:39.812Z,96.80
2018-05-23T21:32:08.893Z,98.40
2018-05-23T21:34:37.913Z,98.40
2018-05-23T21:37:07.144Z,98.30
2018-05-23T21:39:35.254Z,98.30
2018-05-23T21:42:03.467Z,98.50
2018-05-23T21:44:31.767Z,98.30
2018-05-23T21:47:00.084Z,98.20
2018-05-23T21:49:29.055Z,98.30
2018-05-23T21:51:57.267Z,98.30
2018-05-23T21:54:26.223Z,97.80
2018-05-23T21:56:54.434Z,97.80
2018-05-23T21:59:22.652Z,98.00
2018-05-23T22:01:50.890Z,98.40
2018-05-23T22:04:19.862Z,99.00
2018-05-23T22:06:48.151Z,99.00
2018-05-23T22:09:17.136Z,98.40
2018-05-23T22:11:46.229Z,98.80
2018-05-23T22:14:15.196Z,98.80
2018-05-23T22:16:43.495Z,98.80
2018-05-23T22:19:11.689Z,98.40
2018-05-23T22:21:40.684Z,98.60
2018-05-23T22:24:08.879Z,98.60
2018-05-23T22:26:37.107Z,98.20
2018-05-23T22:29:05.322Z,98.30
2018-05-23T22:31:33.510Z,98.60
2018-05-23T22:34:01.757Z,98.80
2018-05-23T22:36:30.720Z,98.80
2018-05-23T22:38:58.926Z,98.70
2018-05-23T22:41:27.885Z,98.70
2018-05-23T22:43:56.161Z,98.70
2018-05-23T22:46:24.351Z,98.70
2018-05-23T22:48:52.628Z,99.10
2018-05-23T22:51:21.596Z,99.90
2018-05-23T22:53:51.435Z,99.80
2018-05-23T22:56:19.711Z,99.80
2018-05-23T22:58:48.687Z,99.30
2018-05-23T23:01:16.871Z,99.10
2018-05-23T23:03:45.083Z,98.80
2018-05-23T23:06:13.282Z,98.90
2018-05-23T23:08:41.499Z,99.60
2018-05-23T23:11:09.695Z,99.90
2018-05-23T23:13:38.150Z,99.90
2018-05-23T23:16:06.436Z,99.90
2018-05-23T23:18:35.435Z,99.90
2018-05-23T23:21:04.539Z,99.90
2018-05-23T23:23:32.912Z,99.90
2018-05-23T23:26:01.896Z,99.90
2018-05-23T23:28:30.115Z,99.90
2018-05-23T23:30:58.303Z,99.70
2018-05-23T23:33:26.619Z,99.40
2018-05-23T23:35:54.808Z,99.40
2018-05-23T23:38:23.808Z,99.60
2018-05-23T23:40:53.019Z,99.40
2018-05-23T23:43:21.375Z,99.40
2018-05-23T23:45:50.391Z,98.70
2018-05-23T23:48:18.587Z,98.70
2018-05-23T23:50:46.819Z,98.80
2018-05-23T23:53:15.092Z,99.30
2018-05-23T23:55:44.189Z,99.30
2018-05-23T23:58:13.151Z,99.20
